createdAt,value
2019-05-20T00:00:16.257Z,11.80
2019-05-20T00:02:45.531Z,11.80
2019-05-20T00:05:14.701Z,11.80
2019-05-20T00:07:43.950Z,11.90
2019-05-20T00:10:13.207Z,12.00
2019-05-20T00:12:42.467Z,11.90
2019-05-20T00:15:11.717Z,12.00
2019-05-20T00:17:41.055Z,11.80
2019-05-20T00:20:10.317Z,11.80
2019-05-20T00:22:39.585Z,11.80
2019-05-20T00:25:09.417Z,11.80
2019-05-20T00:27:38.677Z,11.80
2019-05-20T00:30:08.187Z,11.80
2019-05-20T00:32:42.093Z,11.80
2019-05-20T00:35:08.728Z,11.90
2019-05-20T00:37:37.981Z,11.90
2019-05-20T00:40:07.906Z,11.90
2019-05-20T00:42:37.029Z,11.90
2019-05-20T00:45:06.422Z,12.00
2019-05-20T00:47:35.570Z,12.00
2019-05-20T00:50:04.937Z,12.00
2019-05-20T00:52:34.102Z,12.00
2019-05-20T00:55:03.755Z,12.00
2019-05-20T00:57:32.987Z,12.10
2019-05-20T01:00:02.713Z,12.10
2019-05-20T01:02:32.378Z,12.10
2019-05-20T01:05:01.530Z,12.20
2019-05-20T01:07:30.793Z,12.20
2019-05-20T01:10:00.032Z,12.20
2019-05-20T01:12:29.261Z,12.20
2019-05-20T01:14:58.542Z,12.20
2019-05-20T01:17:27.778Z,12.20
2019-05-20T01:19:57.027Z,12.20
2019-05-20T01:22:26.320Z,12.10
2019-05-20T01:24:55.572Z,12.20
2019-05-20T01:27:24.748Z,12.20
2019-05-20T01:29:54.036Z,12.20
2019-05-20T01:32:23.267Z,12.20
2019-05-20T01:34:52.518Z,12.20
2019-05-20T01:37:21.771Z,12.20
2019-05-20T01:39:51.007Z,12.20
2019-05-20T01:42:20.177Z,12.10
2019-05-20T01:44:49.522Z,12.10
2019-05-20T01:47:18.753Z,12.20
2019-05-20T01:49:48.011Z,12.20
2019-05-20T01:52:17.253Z,12.30
2019-05-20T01:54:46.412Z,12.20
2019-05-20T01:57:15.638Z,12.30
2019-05-20T01:59:44.894Z,12.30
2019-05-20T02:02:14.146Z,12.30
2019-05-20T02:04:43.393Z,12.30
2019-05-20T02:07:12.634Z,12.30
2019-05-20T02:09:41.875Z,12.30
2019-05-20T02:12:11.098Z,12.30
2019-05-20T02:14:46.142Z,12.40
2019-05-20T02:17:15.385Z,12.40
2019-05-20T02:19:44.639Z,12.40
2019-05-20T02:22:13.905Z,12.40
2019-05-20T02:24:43.146Z,12.40
2019-05-20T02:27:12.379Z,12.40
2019-05-20T02:29:41.622Z,12.30
2019-05-20T02:32:10.859Z,12.30
2019-05-20T02:34:40.092Z,12.40
2019-05-20T02:37:09.304Z,12.40
2019-05-20T02:39:38.552Z,12.50
2019-05-20T02:42:07.762Z,12.50
2019-05-20T02:44:36.970Z,12.40
2019-05-20T02:47:06.125Z,12.40
2019-05-20T02:49:35.395Z,12.50
2019-05-20T02:52:04.645Z,12.50
2019-05-20T02:54:33.869Z,12.50
2019-05-20T02:57:03.084Z,12.50
2019-05-20T02:59:32.352Z,12.50
2019-05-20T03:02:01.589Z,12.50
2019-05-20T03:04:30.826Z,12.50
2019-05-20T03:07:00.080Z,12.50
2019-05-20T03:09:29.343Z,12.50
2019-05-20T03:11:58.560Z,12.50
2019-05-20T03:14:27.804Z,12.50
2019-05-20T03:16:57.029Z,12.50
2019-05-20T03:19:26.296Z,12.50
2019-05-20T03:21:55.529Z,12.50
2019-05-20T03:24:24.773Z,12.60
2019-05-20T03:26:54.032Z,12.60
2019-05-20T03:29:23.268Z,12.60
2019-05-20T03:31:52.424Z,12.50
2019-05-20T03:34:44.291Z,12.60
2019-05-20T03:36:52.634Z,12.60
2019-05-20T03:39:21.877Z,12.60
2019-05-20T03:41:51.042Z,12.60
2019-05-20T03:44:20.291Z,12.70
2019-05-20T03:46:49.546Z,12.70
2019-05-20T03:49:18.797Z,12.70
2019-05-20T03:51:48.100Z,12.70
2019-05-20T03:54:19.083Z,12.70
2019-05-20T03:56:48.276Z,12.70
2019-05-20T03:59:17.441Z,12.70
2019-05-20T04:01:46.716Z,12.80
2019-05-20T04:04:15.952Z,12.80
2019-05-20T04:06:45.193Z,12.80
2019-05-20T04:09:14.421Z,12.70
2019-05-20T04:11:43.667Z,12.80
2019-05-20T04:14:12.929Z,12.80
2019-05-20T04:16:42.329Z,12.80
2019-05-20T04:19:11.558Z,12.80
2019-05-20T04:21:40.840Z,12.80
2019-05-20T04:24:10.111Z,12.80
2019-05-20T04:26:39.401Z,12.80
2019-05-20T04:29:08.650Z,12.80
2019-05-20T04:31:37.917Z,12.80
2019-05-20T04:34:07.158Z,12.80
2019-05-20T04:36:36.326Z,12.80
2019-05-20T04:39:08.694Z,12.80
2019-05-20T04:41:38.040Z,12.80
2019-05-20T04:44:07.245Z,12.80
2019-05-20T04:46:36.628Z,12.80
2019-05-20T04:49:05.885Z,12.80
2019-05-20T04:51:35.219Z,12.80
2019-05-20T04:54:04.381Z,12.80
2019-05-20T04:56:33.639Z,12.80
2019-05-20T04:59:02.907Z,12.80
2019-05-20T05:01:32.116Z,12.80
2019-05-20T05:04:01.277Z,12.80
2019-05-20T05:06:30.654Z,12.80
2019-05-20T05:08:59.919Z,12.80
2019-05-20T05:11:29.180Z,12.80
2019-05-20T05:13:58.420Z,12.80
2019-05-20T05:16:27.676Z,12.80
2019-05-20T05:18:56.931Z,12.90
2019-05-20T05:21:26.101Z,12.90
2019-05-20T05:23:59.376Z,12.80
2019-05-20T05:26:26.315Z,12.80
2019-05-20T05:28:55.531Z,12.80
2019-05-20T05:31:24.873Z,12.80
2019-05-20T05:33:54.500Z,12.90
2019-05-20T05:36:23.841Z,12.90
2019-05-20T05:38:53.026Z,12.90
2019-05-20T05:41:22.672Z,12.90
2019-05-20T05:43:51.947Z,12.90
2019-05-20T05:46:21.186Z,12.90
2019-05-20T05:48:50.366Z,12.90
2019-05-20T05:51:19.653Z,12.90
2019-05-20T05:53:48.901Z,12.90
2019-05-20T05:56:20.890Z,12.90
2019-05-20T05:58:50.141Z,12.90
2019-05-20T06:01:22.257Z,12.90
2019-05-20T06:03:51.542Z,12.90
2019-05-20T06:06:20.790Z,12.90
2019-05-20T06:08:50.053Z,12.90
2019-05-20T06:11:19.328Z,12.90
2019-05-20T06:13:48.555Z,12.90
2019-05-20T06:16:33.540Z,12.90
2019-05-20T06:18:48.769Z,12.90
2019-05-20T06:21:19.589Z,12.90
2019-05-20T06:23:48.883Z,13.00
2019-05-20T06:26:18.141Z,12.90
2019-05-20T06:28:47.406Z,13.00
2019-05-20T06:31:16.585Z,13.00
2019-05-20T06:33:45.857Z,13.00
2019-05-20T06:36:26.419Z,13.00
2019-05-20T06:39:02.195Z,13.00
2019-05-20T06:41:31.495Z,13.00
2019-05-20T06:44:00.821Z,13.00
2019-05-20T06:46:29.980Z,13.10
2019-05-20T06:48:59.258Z,13.10
2019-05-20T06:51:28.493Z,13.10
2019-05-20T06:53:57.768Z,13.20
2019-05-20T06:56:27.000Z,13.20
2019-05-20T06:58:56.184Z,13.20
2019-05-20T07:01:25.429Z,13.30
2019-05-20T07:03:54.743Z,13.30
2019-05-20T07:06:23.995Z,13.30
2019-05-20T07:08:53.263Z,13.40
2019-05-20T07:11:22.490Z,13.40
2019-05-20T07:13:51.699Z,13.40
2019-05-20T07:16:20.924Z,13.40
2019-05-20T07:18:50.209Z,13.40
2019-05-20T07:21:19.563Z,13.40
2019-05-20T07:23:52.177Z,13.40
2019-05-20T07:26:19.794Z,13.40
2019-05-20T07:28:49.037Z,13.40
2019-05-20T07:31:18.198Z,13.50
2019-05-20T07:33:47.462Z,13.50
2019-05-20T07:36:16.659Z,13.50
2019-05-20T07:38:45.877Z,13.60
2019-05-20T07:41:15.033Z,13.60
2019-05-20T07:43:44.297Z,13.60
2019-05-20T07:46:13.989Z,13.60
2019-05-20T07:48:43.660Z,13.70
2019-05-20T07:51:13.957Z,13.70
2019-05-20T07:53:43.688Z,13.80
2019-05-20T07:56:16.735Z,13.90
2019-05-20T07:58:50.502Z,13.90
2019-05-20T08:01:19.765Z,13.90
2019-05-20T08:03:49.065Z,14.00
2019-05-20T08:06:18.344Z,14.00
2019-05-20T08:08:47.571Z,14.00
2019-05-20T08:11:16.837Z,14.00
2019-05-20T08:13:46.074Z,14.00
2019-05-20T08:16:15.329Z,14.00
2019-05-20T08:18:44.593Z,14.00
2019-05-20T08:21:13.807Z,14.00
2019-05-20T08:23:43.104Z,14.00
2019-05-20T08:26:12.360Z,13.90
2019-05-20T08:28:41.584Z,13.90
2019-05-20T08:31:10.872Z,13.90
2019-05-20T08:33:40.085Z,13.90
2019-05-20T08:36:09.380Z,13.80
2019-05-20T08:38:38.647Z,13.80
2019-05-20T08:41:07.912Z,13.80
2019-05-20T08:43:37.166Z,13.80
2019-05-20T08:46:06.502Z,13.70
2019-05-20T08:48:35.782Z,13.50
2019-05-20T08:51:05.098Z,13.30
2019-05-20T08:53:34.357Z,13.10
2019-05-20T08:56:03.720Z,13.00
2019-05-20T08:58:32.961Z,13.00
2019-05-20T09:01:02.222Z,12.90
2019-05-20T09:03:31.476Z,12.80
2019-05-20T09:06:00.764Z,12.80
2019-05-20T09:08:30.012Z,12.90
2019-05-20T09:10:59.218Z,12.90
2019-05-20T09:13:28.579Z,12.90
2019-05-20T09:15:57.840Z,13.00
2019-05-20T09:18:27.004Z,13.00
2019-05-20T09:20:56.268Z,13.00
2019-05-20T09:23:25.516Z,13.10
2019-05-20T09:25:54.783Z,13.10
2019-05-20T09:28:24.021Z,13.20
2019-05-20T09:30:53.802Z,13.20
2019-05-20T09:33:23.068Z,13.20
2019-05-20T09:35:52.844Z,13.20
2019-05-20T09:38:22.132Z,13.20
2019-05-20T09:40:51.383Z,13.30
2019-05-20T09:43:20.594Z,13.30
2019-05-20T09:46:05.744Z,13.30
2019-05-20T09:48:24.770Z,13.30
2019-05-20T09:50:51.984Z,13.40
2019-05-20T09:53:21.221Z,13.40
2019-05-20T09:55:50.470Z,13.40
2019-05-20T09:58:19.751Z,13.40
2019-05-20T10:00:48.903Z,13.40
2019-05-20T10:03:18.179Z,13.40
2019-05-20T10:05:47.466Z,13.40
2019-05-20T10:08:16.754Z,13.40
2019-05-20T10:10:48.131Z,13.50
2019-05-20T10:13:17.449Z,13.50
2019-05-20T10:15:46.663Z,13.50
2019-05-20T10:18:15.945Z,13.60
2019-05-20T10:20:45.198Z,13.60
2019-05-20T10:23:15.867Z,13.70
2019-05-20T10:25:45.255Z,13.70
2019-05-20T10:28:14.430Z,13.70
2019-05-20T10:30:43.694Z,13.80
2019-05-20T10:33:12.952Z,13.80
2019-05-20T10:35:42.219Z,13.80
2019-05-20T10:38:11.451Z,13.90
2019-05-20T10:40:40.626Z,13.90
2019-05-20T10:43:09.799Z,13.90
2019-05-20T10:45:39.013Z,13.90
2019-05-20T10:48:09.170Z,14.00
2019-05-20T10:50:38.587Z,13.90
2019-05-20T10:53:07.783Z,14.00
2019-05-20T10:55:37.031Z,14.00
2019-05-20T10:58:06.207Z,14.10
2019-05-20T11:00:35.459Z,14.00
2019-05-20T11:03:04.808Z,14.00
2019-05-20T11:05:34.117Z,14.00
2019-05-20T11:08:03.375Z,14.00
2019-05-20T11:10:32.607Z,14.00
2019-05-20T11:13:01.840Z,14.00
2019-05-20T11:15:31.130Z,14.10
2019-05-20T11:18:00.405Z,14.00
2019-05-20T11:20:29.551Z,14.00
2019-05-20T11:23:04.073Z,14.10
2019-05-20T11:25:33.342Z,14.10
2019-05-20T11:28:02.535Z,14.10
2019-05-20T11:30:51.138Z,14.20
2019-05-20T11:33:20.795Z,14.20
2019-05-20T11:35:50.424Z,14.20
2019-05-20T11:38:20.026Z,14.20
2019-05-20T11:40:49.630Z,14.30
2019-05-20T11:43:19.205Z,14.30
2019-05-20T11:45:48.797Z,14.30
2019-05-20T11:48:18.417Z,14.40
2019-05-20T11:50:48.072Z,14.40
2019-05-20T11:53:17.726Z,14.50
2019-05-20T11:55:47.385Z,14.50
2019-05-20T11:58:17.054Z,14.60
2019-05-20T12:00:46.936Z,14.60
2019-05-20T12:03:16.562Z,14.60
2019-05-20T12:05:46.293Z,14.70
2019-05-20T12:08:16.062Z,14.70
2019-05-20T12:10:45.694Z,14.60
2019-05-20T12:13:15.368Z,14.60
2019-05-20T12:16:04.326Z,14.60
2019-05-20T12:18:33.894Z,14.60
2019-05-20T12:21:03.630Z,14.50
2019-05-20T12:23:33.284Z,14.40
2019-05-20T12:26:03.116Z,14.30
2019-05-20T12:28:32.781Z,14.20
2019-05-20T12:31:03.013Z,14.10
2019-05-20T12:33:33.611Z,14.00
2019-05-20T12:36:03.281Z,14.00
2019-05-20T12:38:32.966Z,13.90
2019-05-20T12:41:02.719Z,13.90
2019-05-20T12:43:35.158Z,13.80
2019-05-20T12:46:07.417Z,13.70
2019-05-20T12:48:37.344Z,13.70
2019-05-20T12:51:08.878Z,13.70
2019-05-20T12:53:39.274Z,13.70
2019-05-20T12:56:09.053Z,13.70
2019-05-20T12:58:46.586Z,13.70
2019-05-20T13:01:16.230Z,13.70
2019-05-20T13:03:46.585Z,13.80
2019-05-20T13:06:16.416Z,13.80
2019-05-20T13:08:46.030Z,13.80
2019-05-20T13:11:15.789Z,13.90
2019-05-20T13:13:46.003Z,13.90
2019-05-20T13:16:15.811Z,13.90
2019-05-20T13:18:55.455Z,14.00
2019-05-20T13:21:37.291Z,14.00
2019-05-20T13:24:43.036Z,13.90
2019-05-20T13:27:18.117Z,14.00
2019-05-20T13:30:15.377Z,14.00
2019-05-20T13:33:14.038Z,14.10
2019-05-20T13:36:00.855Z,14.00
2019-05-20T13:38:28.880Z,14.10
2019-05-20T13:40:58.518Z,14.10
2019-05-20T13:43:28.228Z,14.10
2019-05-20T13:45:57.879Z,14.10
2019-05-20T13:48:27.526Z,14.10
2019-05-20T13:50:59.613Z,14.10
2019-05-20T13:53:29.221Z,14.10
2019-05-20T13:55:58.964Z,14.20
2019-05-20T13:58:31.347Z,14.20
2019-05-20T14:01:01.170Z,14.30
2019-05-20T14:03:30.889Z,14.40
2019-05-20T14:06:00.637Z,14.40
2019-05-20T14:08:30.306Z,14.40
2019-05-20T14:11:04.173Z,14.40
2019-05-20T14:13:31.675Z,14.50
2019-05-20T14:16:01.379Z,14.50
2019-05-20T14:18:31.090Z,14.50
2019-05-20T14:21:00.866Z,14.50
2019-05-20T14:23:30.604Z,14.50
2019-05-20T14:26:00.208Z,14.50
2019-05-20T14:28:29.886Z,14.50
2019-05-20T14:30:59.516Z,14.50
2019-05-20T14:33:29.102Z,14.50
2019-05-20T14:35:58.678Z,14.50
2019-05-20T14:38:28.298Z,14.60
2019-05-20T14:40:59.120Z,14.60
2019-05-20T14:43:28.867Z,14.70
2019-05-20T14:45:58.570Z,14.60
2019-05-20T14:48:28.247Z,14.60
2019-05-20T14:50:57.931Z,14.60
2019-05-20T14:53:27.715Z,14.60
2019-05-20T14:55:57.556Z,14.50
2019-05-20T14:58:27.271Z,14.50
2019-05-20T15:00:56.867Z,14.60
2019-05-20T15:03:26.479Z,14.60
2019-05-20T15:05:58.852Z,14.50
2019-05-20T15:08:28.636Z,14.60
2019-05-20T15:10:58.460Z,14.60
2019-05-20T15:13:28.133Z,14.50
2019-05-20T15:15:58.049Z,14.50
2019-05-20T15:18:27.682Z,14.50
2019-05-20T15:21:01.766Z,14.50
2019-05-20T15:23:31.547Z,14.50
2019-05-20T15:26:01.373Z,14.50
2019-05-20T15:28:32.583Z,14.40
2019-05-20T15:31:02.285Z,14.40
2019-05-20T15:33:32.020Z,14.40
2019-05-20T15:36:01.861Z,14.40
2019-05-20T15:38:31.550Z,14.40
2019-05-20T15:41:01.696Z,14.40
2019-05-20T15:43:31.491Z,14.40
2019-05-20T15:46:01.222Z,14.40
2019-05-20T15:48:30.983Z,14.40
2019-05-20T15:51:08.983Z,14.40
2019-05-20T15:53:38.686Z,14.40
2019-05-20T15:56:08.347Z,14.40
2019-05-20T15:58:37.987Z,14.40
2019-05-20T16:01:07.654Z,14.40
2019-05-20T16:03:37.401Z,14.40
2019-05-20T16:06:07.159Z,14.40
2019-05-20T16:08:36.792Z,14.40
2019-05-20T16:11:07.065Z,14.40
2019-05-20T16:13:37.015Z,14.40
2019-05-20T16:16:06.717Z,14.40
2019-05-20T16:18:36.408Z,14.40
2019-05-20T16:21:06.147Z,14.40
2019-05-20T16:23:35.852Z,14.50
2019-05-20T16:26:05.682Z,14.40
2019-05-20T16:28:35.364Z,14.50
2019-05-20T16:31:05.112Z,14.50
2019-05-20T16:33:34.813Z,14.60
2019-05-20T16:36:07.582Z,14.60
2019-05-20T16:38:39.264Z,14.60
2019-05-20T16:41:09.060Z,14.60
2019-05-20T16:43:43.318Z,14.60
2019-05-20T16:46:19.081Z,14.50
2019-05-20T16:48:48.848Z,14.50
2019-05-20T16:51:22.026Z,14.40
2019-05-20T16:53:49.929Z,14.40
2019-05-20T16:56:19.540Z,14.30
2019-05-20T16:58:49.603Z,14.30
2019-05-20T17:01:19.599Z,14.30
2019-05-20T17:03:56.045Z,14.20
2019-05-20T17:06:29.821Z,14.20
2019-05-20T17:09:09.755Z,14.10
2019-05-20T17:11:39.566Z,14.10
2019-05-20T17:14:10.651Z,14.10
2019-05-20T17:16:41.826Z,14.00
2019-05-20T17:19:11.745Z,14.00
2019-05-20T17:21:41.493Z,14.00
2019-05-20T17:24:11.403Z,14.00
2019-05-20T17:26:41.854Z,14.00
2019-05-20T17:29:17.889Z,13.90
2019-05-20T17:31:47.858Z,13.90
2019-05-20T17:34:17.851Z,13.90
2019-05-20T17:36:47.954Z,13.90
2019-05-20T17:39:18.282Z,13.90
2019-05-20T17:41:48.284Z,13.80
2019-05-20T17:44:18.219Z,13.80
2019-05-20T17:46:48.425Z,13.80
2019-05-20T17:49:26.024Z,13.80
2019-05-20T17:51:56.199Z,13.70
2019-05-20T17:54:31.928Z,13.70
2019-05-20T17:57:05.093Z,13.60
2019-05-20T17:59:40.714Z,13.60
2019-05-20T18:02:14.617Z,13.60
2019-05-20T18:04:49.304Z,13.60
2019-05-20T18:07:22.185Z,13.60
2019-05-20T18:09:54.650Z,13.60
2019-05-20T18:12:24.330Z,13.60
2019-05-20T18:14:56.410Z,13.60
2019-05-20T18:17:25.995Z,13.60
2019-05-20T18:19:56.213Z,13.60
2019-05-20T18:22:25.816Z,13.50
2019-05-20T18:24:55.477Z,13.50
2019-05-20T18:27:25.072Z,13.50
2019-05-20T18:29:54.714Z,13.50
2019-05-20T18:32:24.412Z,13.50
2019-05-20T18:34:53.993Z,13.40
2019-05-20T18:37:23.621Z,13.40
2019-05-20T18:39:53.525Z,13.50
2019-05-20T18:42:23.520Z,13.50
2019-05-20T18:44:57.878Z,13.40
2019-05-20T18:47:27.560Z,13.40
2019-05-20T18:49:57.396Z,13.40
2019-05-20T18:52:27.109Z,13.40
2019-05-20T18:54:56.995Z,13.30
2019-05-20T18:57:26.644Z,13.30
2019-05-20T18:59:56.610Z,13.30
2019-05-20T19:02:26.327Z,13.30
2019-05-20T19:04:56.112Z,13.30
2019-05-20T19:07:26.091Z,13.30
2019-05-20T19:09:55.740Z,13.30
2019-05-20T19:12:25.339Z,13.30
2019-05-20T19:14:55.194Z,13.30
2019-05-20T19:17:25.025Z,13.20
2019-05-20T19:19:54.889Z,13.20
2019-05-20T19:22:27.687Z,13.20
2019-05-20T19:24:57.769Z,13.20
2019-05-20T19:27:27.760Z,13.20
2019-05-20T19:30:03.727Z,13.20
2019-05-20T19:32:33.760Z,13.20
2019-05-20T19:35:03.705Z,13.20
2019-05-20T19:37:33.833Z,13.20
2019-05-20T19:40:04.128Z,13.20
2019-05-20T19:42:34.213Z,13.20
2019-05-20T19:45:04.140Z,13.20
2019-05-20T19:47:33.950Z,13.20
2019-05-20T19:50:03.746Z,13.20
2019-05-20T19:52:33.561Z,13.20
2019-05-20T19:55:03.579Z,13.20
2019-05-20T19:57:33.904Z,13.20
2019-05-20T20:00:03.682Z,13.20
2019-05-20T20:02:39.238Z,13.10
2019-05-20T20:05:09.418Z,13.10
2019-05-20T20:07:39.460Z,13.00
2019-05-20T20:10:09.534Z,13.00
2019-05-20T20:12:39.329Z,13.10
2019-05-20T20:15:09.560Z,13.00
2019-05-20T20:17:42.458Z,12.90
2019-05-20T20:20:12.440Z,12.90
2019-05-20T20:22:42.156Z,12.80
2019-05-20T20:25:12.034Z,12.70
2019-05-20T20:27:41.845Z,12.70
2019-05-20T20:30:11.911Z,12.70
2019-05-20T20:32:41.656Z,12.70
2019-05-20T20:35:11.518Z,12.70
2019-05-20T20:37:41.401Z,12.70
2019-05-20T20:40:11.896Z,12.70
2019-05-20T20:42:43.401Z,12.60
2019-05-20T20:45:13.288Z,12.60
2019-05-20T20:47:43.467Z,12.60
2019-05-20T20:50:13.918Z,12.50
2019-05-20T20:52:43.850Z,12.50
2019-05-20T20:55:16.679Z,12.50
2019-05-20T20:57:46.281Z,12.50
2019-05-20T21:00:16.529Z,12.40
2019-05-20T21:03:05.371Z,12.40
2019-05-20T21:05:35.135Z,12.40
2019-05-20T21:08:05.070Z,12.40
2019-05-20T21:10:34.771Z,12.30
2019-05-20T21:13:04.798Z,12.30
2019-05-20T21:15:34.655Z,12.30
2019-05-20T21:18:04.507Z,12.40
2019-05-20T21:20:34.274Z,12.30
2019-05-20T21:23:04.140Z,12.30
2019-05-20T21:25:42.880Z,12.30
2019-05-20T21:28:12.712Z,12.30
2019-05-20T21:30:42.606Z,12.30
2019-05-20T21:33:12.478Z,12.30
2019-05-20T21:35:45.371Z,12.30
2019-05-20T21:38:14.014Z,12.30
2019-05-20T21:40:44.055Z,12.40
2019-05-20T21:43:14.282Z,12.40
2019-05-20T21:45:44.003Z,12.40
2019-05-20T21:48:13.554Z,12.50
2019-05-20T21:50:44.043Z,12.50
2019-05-20T21:53:13.704Z,12.40
2019-05-20T21:55:43.456Z,12.40
2019-05-20T21:58:13.174Z,12.40
2019-05-20T22:01:01.630Z,12.50
2019-05-20T22:03:31.285Z,12.50
2019-05-20T22:06:02.536Z,12.50
2019-05-20T22:08:32.208Z,12.40
2019-05-20T22:11:01.770Z,12.40
2019-05-20T22:13:31.498Z,12.40
2019-05-20T22:16:01.142Z,12.40
2019-05-20T22:18:30.865Z,12.50
2019-05-20T22:21:00.568Z,12.40
2019-05-20T22:23:53.765Z,12.40
2019-05-20T22:26:23.359Z,12.40
2019-05-20T22:28:53.106Z,12.40
2019-05-20T22:31:22.765Z,12.40
2019-05-20T22:33:52.447Z,12.40
2019-05-20T22:36:22.261Z,12.40
2019-05-20T22:38:51.863Z,12.30
2019-05-20T22:41:21.590Z,12.40
2019-05-20T22:43:51.390Z,12.30
2019-05-20T22:46:21.128Z,12.40
2019-05-20T22:48:50.701Z,12.40
2019-05-20T22:51:20.284Z,12.40
2019-05-20T22:53:49.929Z,12.40
2019-05-20T22:56:19.551Z,12.40
2019-05-20T22:58:49.256Z,12.40
2019-05-20T23:01:18.913Z,12.40
2019-05-20T23:03:56.010Z,12.40
2019-05-20T23:06:19.812Z,12.40
2019-05-20T23:08:49.537Z,12.50
2019-05-20T23:11:19.176Z,12.50
2019-05-20T23:13:48.794Z,12.50
2019-05-20T23:16:18.372Z,12.50
2019-05-20T23:18:48.033Z,12.50
2019-05-20T23:21:17.890Z,12.40
2019-05-20T23:23:47.493Z,12.20
2019-05-20T23:26:17.078Z,12.20
2019-05-20T23:28:46.617Z,12.10
2019-05-20T23:31:16.229Z,12.10
2019-05-20T23:33:45.821Z,12.10
2019-05-20T23:36:15.405Z,12.10
2019-05-20T23:38:45.015Z,12.00
2019-05-20T23:41:14.622Z,12.00
2019-05-20T23:43:44.273Z,12.00
2019-05-20T23:46:13.992Z,12.00
2019-05-20T23:48:43.609Z,12.00
2019-05-20T23:51:13.294Z,12.00
2019-05-20T23:53:42.968Z,12.00
2019-05-20T23:56:12.568Z,11.90
2019-05-20T23:58:42.152Z,11.90
